Time;durP1;ratioP1;P1;durP2;ratioP2;P2;SDS_P1;SDS_P2;PMS_P1;PMS_P2;Temp;Humidity;BMP_temperature;BMP_pressure;BME280_temperature;BME280_humidity;BME280_pressure;Samples;Min_cycle;Max_cycle;Signal;HPM_P1;HPM_P2
2021/07/04 00:05:21;;;;;;;10.10;7.10;;;;;;;15.17;66.19;98300.22;513213;1092;103610;-42
2021/07/04 00:15:39;;;;;;;11.97;7.90;;;;;;;14.99;66.88;98306.06;512910;1092;103453;-41
2021/07/04 00:25:48;;;;;;;11.47;7.27;;;;;;;14.92;66.88;98287.70;512856;1091;103517;-40
2021/07/04 00:35:57;;;;;;;9.95;8.30;;;;;;;14.68;67.01;98287.42;512905;1092;103119;-41
2021/07/04 00:46:03;;;;;;;11.27;8.63;;;;;;;14.44;67.45;98286.31;512808;1092;104247;-42
2021/07/04 00:56:11;;;;;;;11.00;7.40;;;;;;;14.34;67.42;98281.72;512937;1092;103044;-41
2021/07/04 01:06:19;;;;;;;9.85;8.10;;;;;;;14.27;67.99;98285.70;512777;1092;103523;-42
2021/07/04 01:16:27;;;;;;;11.80;8.97;;;;;;;14.27;67.97;98273.20;513059;1092;103514;-41
2021/07/04 01:26:36;;;;;;;9.83;6.05;;;;;;;14.14;68.08;98274.47;512713;1092;103121;-41
2021/07/04 01:36:43;;;;;;;12.10;7.33;;;;;;;13.90;68.45;98270.66;513686;1092;103110;-42
2021/07/04 01:46:52;;;;;;;13.27;8.50;;;;;;;13.73;68.91;98268.22;512821;1092;103409;-42
2021/07/04 01:57:11;;;;;;;13.33;7.60;;;;;;;13.52;68.97;98271.81;513175;1093;103172;-42
2021/07/04 02:07:20;;;;;;;9.88;7.70;;;;;;;13.27;69.39;98283.08;512888;1091;103491;-42
2021/07/04 02:17:29;;;;;;;13.13;8.13;;;;;;;13.23;69.70;98287.27;512876;1089;103102;-41
2021/07/04 02:27:38;;;;;;;12.13;7.87;;;;;;;13.18;69.51;98292.55;513012;1089;103116;-42
2021/07/04 02:37:46;;;;;;;11.83;7.60;;;;;;;13.10;69.93;98283.19;512730;1089;103396;-43
2021/07/04 02:47:54;;;;;;;14.23;7.70;;;;;;;13.26;70.51;98304.58;513020;1089;103467;-41
2021/07/04 02:58:02;;;;;;;11.60;8.77;;;;;;;13.31;70.10;98302.75;512821;1089;103150;-42
2021/07/04 03:08:11;;;;;;;14.37;8.40;;;;;;;13.52;70.60;98303.69;512961;1090;103602;-43
2021/07/04 03:18:18;;;;;;;14.70;9.23;;;;;;;13.74;70.63;98308.88;512983;1088;103127;-43
2021/07/04 03:28:26;;;;;;;12.43;9.17;;;;;;;14.43;70.49;98313.95;512943;1089;103066;-42
2021/07/04 03:38:34;;;;;;;9.43;7.83;;;;;;;17.38;69.14;98307.75;512963;1089;104253;-41
2021/07/04 03:48:42;;;;;;;12.45;8.25;;;;;;;19.45;66.76;98298.08;513161;1089;103127;-43
2021/07/04 03:58:49;;;;;;;16.80;9.68;;;;;;;21.10;64.87;98309.45;512973;1089;103176;-44
2021/07/04 04:08:57;;;;;;;12.03;8.07;;;;;;;22.28;63.13;98304.50;512833;1087;103149;-44
2021/07/04 04:19:05;;;;;;;10.60;7.65;;;;;;;23.66;61.38;98309.86;512820;1091;103131;-42
2021/07/04 04:29:12;;;;;;;10.93;6.33;;;;;;;24.66;60.11;98311.09;512763;1087;103201;-42
2021/07/04 04:39:20;;;;;;;7.23;5.63;;;;;;;24.30;58.46;98301.63;513136;1088;103061;-42
2021/07/04 04:49:28;;;;;;;9.03;6.13;;;;;;;23.94;58.07;98304.03;512830;1089;103448;-42
2021/07/04 05:09:42;;;;;;;8.60;5.55;;;;;;;23.32;55.91;98301.81;513025;1088;103044;-42
2021/07/04 05:19:50;;;;;;;6.43;5.23;;;;;;;23.71;56.08;98314.28;512817;1089;103138;-42
2021/07/04 05:29:58;;;;;;;5.20;4.70;;;;;;;24.13;55.21;98312.48;512864;1088;103476;-42
2021/07/04 05:50:18;;;;;;;4.60;4.10;;;;;;;24.53;52.07;98295.91;512926;1089;103226;-42
2021/07/04 06:00:26;;;;;;;4.30;3.90;;;;;;;24.52;51.64;98305.93;513091;1088;103102;-42
2021/07/04 06:10:34;;;;;;;4.33;3.93;;;;;;;24.58;51.26;98287.59;512790;1088;103207;-42
2021/07/04 06:20:42;;;;;;;7.77;4.83;;;;;;;24.31;51.84;98300.50;513064;1089;103142;-43
2021/07/04 06:30:50;;;;;;;5.23;4.50;;;;;;;24.38;50.47;98306.20;512816;1089;103144;-43
2021/07/04 06:40:58;;;;;;;6.40;3.80;;;;;;;24.59;51.86;98302.69;512949;1088;103097;-41
2021/07/04 06:51:06;;;;;;;5.87;4.73;;;;;;;24.34;51.42;98316.05;512934;1087;103530;-41
2021/07/04 07:11:21;;;;;;;6.37;5.10;;;;;;;25.34;50.52;98317.05;512818;1088;103478;-42
2021/07/04 07:21:28;;;;;;;6.63;5.17;;;;;;;25.14;50.48;98315.96;512996;1088;103168;-43
2021/07/04 07:31:36;;;;;;;5.63;5.13;;;;;;;24.77;48.84;98298.74;512915;1089;103103;-45
2021/07/04 07:41:45;;;;;;;6.50;4.50;;;;;;;24.92;48.64;98300.06;512954;1089;103089;-43
2021/07/04 07:51:54;;;;;;;7.17;5.03;;;;;;;25.14;48.67;98304.34;512916;1089;103335;-43
2021/07/04 08:02:02;;;;;;;5.00;4.40;;;;;;;25.66;48.30;98299.17;512996;1088;103140;-41
2021/07/04 08:12:10;;;;;;;5.37;4.57;;;;;;;24.86;48.72;98293.28;512932;1088;103144;-42
2021/07/04 08:22:18;;;;;;;5.73;4.33;;;;;;;24.91;48.26;98293.86;512861;1088;103122;-42
2021/07/04 08:32:26;;;;;;;9.45;4.90;;;;;;;24.85;48.53;98283.59;512773;1089;103035;-42
2021/07/04 08:42:34;;;;;;;5.03;4.53;;;;;;;25.06;46.87;98285.14;513122;1088;103135;-42
2021/07/04 08:52:41;;;;;;;5.27;4.10;;;;;;;25.44;48.39;98276.01;512935;1087;103116;-43
2021/07/04 09:02:48;;;;;;;4.70;3.60;;;;;;;25.63;47.65;98272.77;513027;1088;103103;-42
2021/07/04 09:12:58;;;;;;;4.15;3.15;;;;;;;25.57;46.06;98266.80;512904;1088;103497;-45
2021/07/04 09:23:07;;;;;;;4.47;3.63;;;;;;;25.41;46.53;98257.73;513229;1089;103121;-42
2021/07/04 09:33:13;;;;;;;6.53;3.70;;;;;;;25.87;47.13;98250.35;512806;1088;103376;-44
2021/07/04 09:43:22;;;;;;;4.63;3.18;;;;;;;25.08;45.73;98250.45;512940;1088;103460;-42
2021/07/04 09:53:33;;;;;;;9.20;4.33;;;;;;;26.48;46.01;98234.00;513030;1088;103479;-43
2021/07/04 10:13:51;;;;;;;2.98;2.70;;;;;;;26.16;45.40;98222.20;512986;1088;103144;-43
2021/07/04 10:24:00;;;;;;;3.80;3.40;;;;;;;25.04;45.72;98210.86;512849;1088;103422;-42
2021/07/04 10:34:10;;;;;;;5.50;3.73;;;;;;;25.29;46.32;98201.66;513100;1088;103131;-43
2021/07/04 10:44:17;;;;;;;3.03;2.83;;;;;;;25.87;45.48;98180.72;512976;1088;103144;-43
2021/07/04 10:55:00;;;;;;;2.80;2.60;;;;;;;26.57;44.35;98180.45;512796;1088;103432;-42
2021/07/04 11:05:07;;;;;;;4.03;2.90;;;;;;;26.36;44.62;98177.14;513101;1091;103403;-43
2021/07/04 11:15:32;;;;;;;3.53;2.90;;;;;;;27.46;43.90;98153.69;512895;1089;103530;-43
2021/07/04 11:25:46;;;;;;;2.50;2.30;;;;;;;26.12;42.79;98159.00;512713;1089;103121;-42
2021/07/04 11:35:53;;;;;;;4.67;2.80;;;;;;;25.86;43.94;98146.64;512838;1088;103514;-43
2021/07/04 11:46:03;;;;;;;3.10;2.80;;;;;;;26.12;44.33;98151.66;512959;1089;103223;-42
2021/07/04 11:56:13;;;;;;;6.47;3.43;;;;;;;26.33;43.71;98139.85;512935;1089;103128;-43
2021/07/04 12:06:21;;;;;;;3.90;3.60;;;;;;;26.08;44.06;98136.44;513032;1089;103202;-42
2021/07/04 12:16:37;;;;;;;3.73;3.43;;;;;;;25.67;44.97;98127.48;512937;1090;103123;-42
2021/07/04 12:26:46;;;;;;;5.73;3.33;;;;;;;26.07;43.76;98121.31;513119;1089;103150;-43
2021/07/04 12:36:54;;;;;;;2.90;2.70;;;;;;;25.57;44.76;98109.77;512894;1089;103125;-43
2021/07/04 12:47:11;;;;;;;4.33;2.83;;;;;;;25.40;44.26;98104.59;512809;1088;103153;-41
2021/07/04 12:57:29;;;;;;;;;;;;;;;25.41;44.73;98098.05;512938;1088;103133;-42
2021/07/04 13:07:45;;;;;;;3.95;2.90;;;;;;;25.21;45.03;98085.43;513015;1089;103421;-43
2021/07/04 13:17:53;;;;;;;3.83;3.35;;;;;;;25.70;44.24;98072.65;513003;1088;103429;-43
2021/07/04 13:28:04;;;;;;;6.07;3.03;;;;;;;25.56;43.60;98064.88;512886;1089;103138;-43
2021/07/04 13:38:18;;;;;;;3.47;3.03;;;;;;;25.61;44.03;98061.14;513013;1088;103431;-41
2021/07/04 13:48:31;;;;;;;6.47;3.03;;;;;;;25.76;43.70;98056.95;512808;1088;103508;-42
2021/07/04 13:58:39;;;;;;;6.00;3.07;;;;;;;26.16;42.60;98044.16;512909;1089;103423;-42
2021/07/04 14:08:47;;;;;;;3.60;3.07;;;;;;;26.41;42.31;98044.05;512849;1089;103490;-42
2021/07/04 14:18:53;;;;;;;2.98;2.78;;;;;;;26.85;42.90;98031.22;512927;1088;103101;-42
2021/07/04 14:29:00;;;;;;;3.37;2.97;;;;;;;27.02;41.87;98016.55;513122;1088;103163;-43
2021/07/04 14:39:05;;;;;;;3.50;2.80;;;;;;;26.97;41.11;98014.05;512889;1089;103160;-44
2021/07/04 14:49:12;;;;;;;2.90;2.70;;;;;;;27.00;41.40;98010.69;512909;1089;103432;-43
2021/07/04 14:59:21;;;;;;;3.30;2.75;;;;;;;26.78;40.82;98006.66;512918;1089;103199;-41
2021/07/04 15:09:28;;;;;;;7.23;2.63;;;;;;;26.51;41.45;98005.61;512786;1090;103595;-42
2021/07/04 15:19:36;;;;;;;2.93;2.73;;;;;;;26.52;40.20;98007.18;513074;1089;103133;-44
2021/07/04 15:29:44;;;;;;;2.60;2.40;;;;;;;26.63;39.89;97997.38;512756;1088;103309;-44
2021/07/04 15:39:52;;;;;;;3.57;3.27;;;;;;;26.46;38.98;97997.71;512836;1089;103116;-41
2021/07/04 15:50:00;;;;;;;3.40;3.00;;;;;;;26.51;38.95;97992.05;512838;1090;103377;-42
2021/07/04 16:00:12;;;;;;;4.20;2.80;;;;;;;26.47;39.73;97977.59;513114;1087;103122;-42
2021/07/04 16:10:24;;;;;;;3.03;2.73;;;;;;;26.23;40.15;97981.22;512924;1088;103129;-42
2021/07/04 16:20:32;;;;;;;3.77;2.80;;;;;;;25.84;39.81;97975.58;512928;1089;103163;-41
2021/07/04 16:30:39;;;;;;;3.10;2.80;;;;;;;25.80;40.42;97979.33;512964;1088;103034;-43
2021/07/04 16:40:47;;;;;;;3.83;3.17;;;;;;;25.58;40.10;97975.20;513041;1089;103457;-43
2021/07/04 16:50:55;;;;;;;3.33;3.03;;;;;;;25.50;40.83;97974.19;512818;1088;103448;-42
2021/07/04 17:01:00;;;;;;;;;;;;;;;25.39;40.98;97982.02;514044;1089;103063;-43
2021/07/04 17:11:07;;;;;;;3.20;3.00;;;;;;;25.23;41.33;97989.26;513267;1089;103161;-43
2021/07/04 17:21:16;;;;;;;3.63;3.33;;;;;;;25.13;41.60;97984.33;513012;1088;103160;-41
2021/07/04 17:41:32;;;;;;;3.33;3.08;;;;;;;24.69;41.85;97972.50;513617;1089;103124;-42
2021/07/04 17:51:40;;;;;;;5.77;3.50;;;;;;;24.31;42.61;97978.98;513534;1089;103122;-41
2021/07/04 18:01:48;;;;;;;3.63;3.33;;;;;;;24.00;43.74;97979.45;513065;1088;103156;-42
2021/07/04 18:11:56;;;;;;;5.87;4.00;;;;;;;23.50;44.75;97980.34;512941;1089;103694;-42
2021/07/04 18:22:03;;;;;;;4.50;4.10;;;;;;;23.13;45.54;97975.84;512902;1088;103460;-41
2021/07/04 18:32:12;;;;;;;4.70;4.30;;;;;;;22.88;46.64;97977.58;513417;1088;103103;-43
2021/07/04 18:42:21;;;;;;;6.37;4.07;;;;;;;22.58;47.68;97976.75;513251;1088;103141;-41
2021/07/04 18:52:29;;;;;;;8.60;4.93;;;;;;;22.17;48.95;97996.21;512909;1089;103147;-41
2021/07/04 19:02:37;;;;;;;8.10;5.03;;;;;;;21.71;50.52;98008.44;513037;1088;103172;-42
2021/07/04 19:12:46;;;;;;;7.40;5.45;;;;;;;21.22;51.03;98023.08;513069;1088;103505;-41
2021/07/04 19:22:55;;;;;;;8.55;6.00;;;;;;;20.99;51.82;98020.50;512969;1089;103464;-42
2021/07/04 19:33:02;;;;;;;7.50;6.28;;;;;;;20.91;52.80;98020.48;513205;1088;103105;-42
2021/07/04 19:43:11;;;;;;;9.30;6.85;;;;;;;20.82;53.68;98036.59;512889;1090;103087;-43
2021/07/04 19:53:18;;;;;;;7.30;6.20;;;;;;;20.42;54.24;98023.13;513119;1088;104074;-42
2021/07/04 20:13:48;;;;;;;8.60;6.83;;;;;;;19.73;55.82;98016.48;512921;1088;103115;-45
2021/07/04 20:23:56;;;;;;;9.80;6.53;;;;;;;19.59;56.66;98017.31;512909;1089;103119;-42
2021/07/04 20:34:04;;;;;;;9.50;7.63;;;;;;;19.36;57.20;98023.70;512874;1088;103338;-42
2021/07/04 20:44:13;;;;;;;11.90;8.80;;;;;;;19.11;57.81;98018.88;513047;1088;103057;-42
2021/07/04 20:54:20;;;;;;;11.67;8.37;;;;;;;18.70;58.48;98033.89;512829;1089;103278;-41
2021/07/04 21:04:28;;;;;;;10.50;7.23;;;;;;;18.56;59.53;98038.40;513087;1089;103146;-44
2021/07/04 21:14:36;;;;;;;9.77;8.10;;;;;;;18.38;60.23;98039.25;512782;1088;103105;-43
2021/07/04 21:24:44;;;;;;;12.80;8.13;;;;;;;18.24;60.15;98033.89;512820;1089;103127;-42
2021/07/04 21:34:52;;;;;;;13.80;9.70;;;;;;;18.16;61.18;98033.74;512981;1089;103121;-42
2021/07/04 21:44:59;;;;;;;11.93;10.40;;;;;;;17.78;61.58;98031.95;512889;1089;103506;-44
2021/07/04 21:55:11;;;;;;;18.15;11.20;;;;;;;17.70;62.29;98026.44;512863;1089;103122;-43
2021/07/04 22:05:19;;;;;;;13.83;11.00;;;;;;;17.57;62.48;98019.13;512852;1088;103124;-43
2021/07/04 22:15:28;;;;;;;11.23;9.93;;;;;;;17.52;63.26;98021.89;512894;1088;103127;-43
2021/07/04 22:25:36;;;;;;;13.60;9.73;;;;;;;17.46;63.65;98034.50;512914;1088;103406;-42
2021/07/04 22:35:41;;;;;;;14.30;10.95;;;;;;;17.40;63.74;98038.34;512867;1089;103066;-43
2021/07/04 22:45:49;;;;;;;19.30;13.15;;;;;;;17.14;64.29;98036.00;512876;1088;103429;-43
2021/07/04 22:55:58;;;;;;;12.43;10.05;;;;;;;16.92;64.51;98024.26;512914;1089;103128;-43
2021/07/04 23:06:06;;;;;;;15.90;11.08;;;;;;;16.90;65.19;98019.20;512854;1089;103100;-42
2021/07/04 23:26:22;;;;;;;16.53;10.53;;;;;;;16.55;65.30;98015.01;512852;1088;103103;-42
2021/07/04 23:36:28;;;;;;;13.20;11.60;;;;;;;16.21;65.71;98007.09;512939;1089;103456;-43
2021/07/04 23:46:37;;;;;;;20.70;13.03;;;;;;;16.01;66.62;98007.26;512888;1089;103052;-41
2021/07/04 23:56:44;;;;;;;15.90;12.50;;;;;;;15.90;66.63;98012.69;512961;1089;103121;-42
